createdAt,value
2017-11-28T00:02:07.053Z,99252.45
2017-11-28T00:04:36.263Z,99240.46
2017-11-28T00:07:05.460Z,99237.15
2017-11-28T00:09:34.647Z,99231.83
2017-11-28T00:12:03.883Z,99224.06
2017-11-28T00:14:33.068Z,99216.03
2017-11-28T00:17:02.373Z,99219.30
2017-11-28T00:19:31.652Z,99216.99
2017-11-28T00:22:00.841Z,99211.76
2017-11-28T00:24:30.096Z,99207.38
2017-11-28T00:27:00.226Z,99205.81
2017-11-28T00:29:30.179Z,99199.38
2017-11-28T00:31:59.376Z,99203.81
2017-11-28T00:34:28.554Z,99195.96
2017-11-28T00:36:57.811Z,99203.11
2017-11-28T00:39:26.992Z,99202.54
2017-11-28T00:41:56.183Z,99204.77
2017-11-28T00:44:25.440Z,99197.80
2017-11-28T00:46:55.440Z,99195.25
2017-11-28T00:49:25.378Z,99196.22
2017-11-28T00:51:54.595Z,99202.08
2017-11-28T00:54:23.769Z,99199.20
2017-11-28T00:56:52.947Z,99203.03
2017-11-28T00:59:22.923Z,99196.98
2017-11-28T01:01:52.133Z,99202.46
2017-11-28T01:04:21.326Z,99201.84
2017-11-28T01:06:50.498Z,99206.36
2017-11-28T01:09:20.468Z,99211.03
2017-11-28T01:11:50.429Z,99205.71
2017-11-28T01:14:19.649Z,99208.48
2017-11-28T01:16:48.833Z,99202.48
2017-11-28T01:19:18.012Z,99202.08
2017-11-28T01:21:47.303Z,99207.08
2017-11-28T01:24:17.219Z,99211.03
2017-11-28T01:26:46.424Z,99210.24
2017-11-28T01:29:16.441Z,99208.02
2017-11-28T01:31:45.720Z,99204.20
2017-11-28T01:34:14.920Z,99209.04
2017-11-28T01:36:44.180Z,99193.13
2017-11-28T01:39:13.453Z,99190.72
2017-11-28T01:41:42.669Z,99192.70
2017-11-28T01:44:11.852Z,99185.73
2017-11-28T01:46:41.029Z,99192.41
2017-11-28T01:49:10.298Z,99187.41
2017-11-28T01:51:39.576Z,99188.44
2017-11-28T01:54:09.555Z,99185.18
2017-11-28T01:56:38.733Z,99180.56
2017-11-28T01:59:07.955Z,99184.39
2017-11-28T02:01:37.134Z,99179.47
2017-11-28T02:04:06.548Z,99180.66
2017-11-28T02:06:35.767Z,99178.52
2017-11-28T02:09:04.988Z,99172.72
2017-11-28T02:11:34.221Z,99160.77
2017-11-28T02:14:03.405Z,99168.44
2017-11-28T02:16:32.573Z,99162.09
2017-11-28T02:19:02.584Z,99165.98
2017-11-28T02:21:32.550Z,99161.55
2017-11-28T02:24:01.774Z,99160.77
2017-11-28T02:26:30.938Z,99160.05
2017-11-28T02:29:00.157Z,99164.34
2017-11-28T02:31:29.402Z,99159.63
2017-11-28T02:33:59.341Z,99149.09
2017-11-28T02:36:28.527Z,99155.69
2017-11-28T02:38:57.715Z,99154.64
2017-11-28T02:41:27.931Z,99155.51
2017-11-28T02:43:59.402Z,99150.91
2017-11-28T02:46:28.615Z,99145.94
2017-11-28T02:49:10.195Z,99144.98
2017-11-28T02:51:40.277Z,99146.16
2017-11-28T02:54:09.474Z,99138.63
2017-11-28T02:56:39.441Z,99131.42
2017-11-28T03:12:41.905Z,99108.34
2017-11-28T03:15:15.760Z,99106.44
2017-11-28T03:17:45.752Z,99113.02
2017-11-28T03:33:45.188Z,99134.41
2017-11-28T03:36:14.401Z,99147.34
2017-11-28T03:38:43.761Z,99139.73
2017-11-28T03:41:13.708Z,99130.55
2017-11-28T03:43:42.923Z,99131.80
2017-11-28T03:46:15.941Z,99116.33
2017-11-28T03:48:46.012Z,99128.38
2017-11-28T03:51:15.201Z,99122.59
2017-11-28T03:53:44.409Z,99110.16
2017-11-28T03:56:16.126Z,99108.31
2017-11-28T03:58:46.098Z,99099.97
2017-11-28T04:01:15.279Z,99105.30
2017-11-28T04:03:44.448Z,99101.48
2017-11-28T04:06:13.705Z,99102.66
2017-11-28T04:08:42.942Z,99106.16
2017-11-28T04:11:12.232Z,99097.52
2017-11-28T04:13:42.256Z,99110.20
2017-11-28T04:16:12.955Z,99115.59
2017-11-28T04:18:42.157Z,99107.76
2017-11-28T04:21:11.345Z,99107.11
2017-11-28T04:23:40.565Z,99113.84
2017-11-28T04:26:09.787Z,99109.03
2017-11-28T04:28:39.081Z,99109.36
2017-11-28T04:31:08.255Z,99104.41
2017-11-28T04:33:38.255Z,99115.20
2017-11-28T04:36:07.433Z,99108.31
2017-11-28T04:38:36.637Z,99113.78
2017-11-28T04:41:05.936Z,99111.08
2017-11-28T04:43:35.159Z,99106.66
2017-11-28T04:46:05.157Z,99100.06
2017-11-28T04:48:34.436Z,99099.27
2017-11-28T04:51:03.716Z,99099.36
2017-11-28T04:53:32.931Z,99099.50
2017-11-28T04:56:02.213Z,99111.70
2017-11-28T04:58:31.440Z,99099.50
2017-11-28T05:01:00.625Z,99109.50
2017-11-28T05:03:29.862Z,99111.98
2017-11-28T05:05:59.835Z,99106.41
2017-11-28T05:08:29.005Z,99101.34
2017-11-28T05:10:58.259Z,99101.73
2017-11-28T05:13:28.249Z,99104.27
2017-11-28T05:15:57.580Z,99094.04
2017-11-28T05:18:26.789Z,99093.25
2017-11-28T05:20:56.017Z,99094.27
2017-11-28T05:23:25.224Z,99097.03
2017-11-28T05:25:54.455Z,99098.72
2017-11-28T05:28:23.669Z,99097.66
2017-11-28T05:30:52.874Z,99098.71
2017-11-28T05:33:22.121Z,99096.97
2017-11-28T05:35:51.302Z,99116.66
2017-11-28T05:38:20.516Z,99111.41
2017-11-28T05:40:49.685Z,99124.09
2017-11-28T05:43:19.645Z,99121.08
2017-11-28T05:45:53.181Z,99125.59
2017-11-28T05:48:23.152Z,99128.22
2017-11-28T05:50:52.332Z,99125.94
2017-11-28T05:53:26.022Z,99122.13
2017-11-28T05:55:55.244Z,99126.89
2017-11-28T05:58:24.506Z,99126.33
2017-11-28T06:00:53.717Z,99127.84
2017-11-28T06:03:22.940Z,99133.86
2017-11-28T06:05:52.223Z,99127.28
2017-11-28T06:08:26.256Z,99121.42
2017-11-28T06:10:55.523Z,99127.91
2017-11-28T06:13:24.712Z,99133.71
2017-11-28T06:15:54.700Z,99125.39
2017-11-28T06:18:24.000Z,99119.11
2017-11-28T06:20:53.192Z,99127.77
2017-11-28T06:23:22.421Z,99130.30
2017-11-28T06:25:51.705Z,99135.23
2017-11-28T06:28:20.925Z,99139.42
2017-11-28T06:30:50.181Z,99139.50
2017-11-28T06:33:19.402Z,99142.45
2017-11-28T06:35:48.581Z,99148.45
2017-11-28T06:38:17.961Z,99150.99
2017-11-28T06:40:47.157Z,99146.09
2017-11-28T06:43:16.381Z,99148.69
2017-11-28T06:45:45.545Z,99142.92
2017-11-28T06:48:14.762Z,99144.64
2017-11-28T06:50:43.981Z,99139.34
2017-11-28T06:53:13.271Z,99141.31
2017-11-28T06:55:42.509Z,99137.13
2017-11-28T06:58:11.739Z,99147.98
2017-11-28T07:00:40.963Z,99149.16
2017-11-28T07:03:10.182Z,99151.47
2017-11-28T07:05:40.216Z,99157.46
2017-11-28T07:08:09.403Z,99152.63
2017-11-28T07:10:38.641Z,99156.91
2017-11-28T07:13:07.836Z,99156.08
2017-11-28T07:15:37.004Z,99159.97
2017-11-28T07:18:06.263Z,99164.95
2017-11-28T07:20:35.473Z,99162.58
2017-11-28T07:23:05.464Z,99162.66
2017-11-28T07:25:34.698Z,99163.75
2017-11-28T07:28:04.138Z,99153.29
2017-11-28T07:30:33.322Z,99163.85
2017-11-28T07:33:02.624Z,99160.12
2017-11-28T07:35:32.774Z,99161.39
2017-11-28T07:38:01.993Z,99170.98
2017-11-28T07:40:31.181Z,99168.99
2017-11-28T07:43:00.400Z,99177.84
2017-11-28T07:45:30.346Z,99181.03
2017-11-28T07:47:59.536Z,99177.85
2017-11-28T07:50:28.776Z,99178.40
2017-11-28T07:52:58.800Z,99188.66
2017-11-28T07:55:27.999Z,99188.56
2017-11-28T07:57:57.192Z,99192.13
2017-11-28T08:00:27.213Z,99182.55
2017-11-28T08:02:56.400Z,99191.50
2017-11-28T08:05:25.702Z,99188.25
2017-11-28T08:07:54.944Z,99192.70
2017-11-28T08:10:24.151Z,99187.40
2017-11-28T08:12:53.366Z,99190.33
2017-11-28T08:15:22.533Z,99190.41
2017-11-28T08:17:51.715Z,99193.27
2017-11-28T08:20:21.692Z,99191.05
2017-11-28T08:22:50.870Z,99201.67
2017-11-28T08:25:20.113Z,99196.44
2017-11-28T08:27:49.279Z,99197.70
2017-11-28T08:30:18.486Z,99197.95
2017-11-28T08:32:47.972Z,99191.20
2017-11-28T08:35:17.150Z,99201.36
2017-11-28T08:37:46.330Z,99194.77
2017-11-28T08:40:15.620Z,99195.89
2017-11-28T08:42:45.561Z,99206.45
2017-11-28T08:45:14.753Z,99202.95
2017-11-28T08:47:44.089Z,99191.54
2017-11-28T08:50:13.262Z,99196.84
2017-11-28T08:52:42.506Z,99195.89
2017-11-28T08:55:12.501Z,99192.31
2017-11-28T08:57:41.685Z,99200.49
2017-11-28T09:00:10.923Z,99200.02
2017-11-28T09:02:40.230Z,99201.59
2017-11-28T09:05:09.477Z,99214.45
2017-11-28T09:07:39.402Z,99215.55
2017-11-28T09:10:08.700Z,99215.23
2017-11-28T09:12:38.022Z,99197.39
2017-11-28T09:15:07.487Z,99203.27
2017-11-28T09:17:37.419Z,99213.66
2017-11-28T09:20:06.666Z,99207.22
2017-11-28T09:22:36.650Z,99205.33
2017-11-28T09:25:06.711Z,99207.25
2017-11-28T09:27:35.905Z,99208.02
2017-11-28T09:30:05.893Z,99206.51
2017-11-28T09:32:35.161Z,99200.64
2017-11-28T09:35:04.344Z,99203.73
2017-11-28T09:37:33.627Z,99208.34
2017-11-28T09:40:03.553Z,99203.73
2017-11-28T09:42:32.750Z,99189.70
2017-11-28T09:45:01.933Z,99198.90
2017-11-28T09:47:31.114Z,99198.99
2017-11-28T09:50:01.079Z,99198.04
2017-11-28T09:52:30.384Z,99203.11
2017-11-28T09:54:59.752Z,99196.91
2017-11-28T09:57:28.968Z,99203.10
2017-11-28T09:59:58.220Z,99206.20
2017-11-28T10:02:28.188Z,99205.95
2017-11-28T10:04:57.405Z,99206.90
2017-11-28T10:07:26.568Z,99207.62
2017-11-28T10:09:55.840Z,99208.70
2017-11-28T10:12:25.990Z,99207.14
2017-11-28T10:14:55.171Z,99206.65
2017-11-28T10:17:24.366Z,99206.09
2017-11-28T10:19:53.566Z,99202.05
2017-11-28T10:22:22.759Z,99210.44
2017-11-28T10:24:51.966Z,99203.83
2017-11-28T10:27:21.169Z,99216.94
2017-11-28T10:29:50.410Z,99213.05
2017-11-28T10:32:19.634Z,99203.44
2017-11-28T10:34:49.601Z,99208.14
2017-11-28T10:37:18.797Z,99212.74
2017-11-28T10:39:47.989Z,99208.30
2017-11-28T10:42:17.218Z,99205.59
2017-11-28T10:44:46.399Z,99202.91
2017-11-28T10:47:15.625Z,99201.48
2017-11-28T10:49:45.568Z,99190.98
2017-11-28T10:52:14.748Z,99189.94
2017-11-28T10:54:44.838Z,99188.45
2017-11-28T10:57:14.090Z,99190.61
2017-11-28T10:59:43.295Z,99189.56
2017-11-28T11:02:12.506Z,99180.75
2017-11-28T11:04:41.798Z,99187.23
2017-11-28T11:07:10.956Z,99179.40
2017-11-28T11:09:40.935Z,99183.61
2017-11-28T11:12:10.120Z,99182.42
2017-11-28T11:14:39.324Z,99182.09
2017-11-28T11:17:08.529Z,99175.91
2017-11-28T11:19:37.798Z,99171.77
2017-11-28T11:22:06.994Z,99177.86
2017-11-28T11:24:36.190Z,99175.48
2017-11-28T11:27:06.129Z,99164.48
2017-11-28T11:29:35.341Z,99165.34
2017-11-28T11:32:04.537Z,99162.97
2017-11-28T11:34:33.741Z,99166.76
2017-11-28T11:37:02.974Z,99164.98
2017-11-28T11:39:32.159Z,99166.06
2017-11-28T11:42:02.123Z,99166.23
2017-11-28T11:44:31.343Z,99156.95
2017-11-28T11:47:00.568Z,99155.30
2017-11-28T11:49:30.506Z,99151.97
2017-11-28T11:51:59.681Z,99152.59
2017-11-28T11:54:28.896Z,99152.14
2017-11-28T11:56:58.158Z,99147.36
2017-11-28T11:59:27.365Z,99146.02
2017-11-28T12:01:56.554Z,99138.84
2017-11-28T12:07:01.182Z,99130.05
2017-11-28T12:09:30.349Z,99129.14
2017-11-28T12:11:59.527Z,99138.73
2017-11-28T12:14:28.780Z,99132.91
2017-11-28T12:16:57.941Z,99123.36
2017-11-28T12:19:27.153Z,99139.79
2017-11-28T12:21:56.370Z,99137.30
2017-11-28T12:24:25.576Z,99135.35
2017-11-28T12:26:55.524Z,99129.67
2017-11-28T12:29:24.724Z,99143.45
2017-11-28T12:31:53.905Z,99144.69
2017-11-28T12:34:23.180Z,99144.12
2017-11-28T12:36:53.157Z,99138.59
2017-11-28T12:39:22.361Z,99136.02
2017-11-28T12:41:51.816Z,99140.17
2017-11-28T12:44:21.166Z,99140.31
2017-11-28T12:46:50.461Z,99136.91
2017-11-28T12:49:19.747Z,99139.29
2017-11-28T12:51:48.965Z,99143.89
2017-11-28T12:54:18.163Z,99147.45
2017-11-28T12:56:47.352Z,99135.45
2017-11-28T12:59:16.522Z,99139.00
2017-11-28T13:01:45.820Z,99135.52
2017-11-28T13:04:15.049Z,99132.75
2017-11-28T13:06:44.325Z,99129.32
2017-11-28T13:09:13.518Z,99120.92
2017-11-28T13:11:42.721Z,99129.42
2017-11-28T13:14:11.937Z,99134.65
2017-11-28T13:16:41.104Z,99119.13
2017-11-28T13:19:10.376Z,99125.37
2017-11-28T13:21:40.325Z,99127.23
2017-11-28T13:24:09.530Z,99120.59
2017-11-28T13:26:39.613Z,99124.81
2017-11-28T13:29:09.581Z,99120.88
2017-11-28T13:31:39.535Z,99118.98
2017-11-28T13:34:09.538Z,99120.16
2017-11-28T13:36:39.505Z,99112.16
2017-11-28T13:39:08.719Z,99108.63
2017-11-28T13:41:37.985Z,99115.31
2017-11-28T13:44:07.265Z,99108.63
2017-11-28T13:46:36.470Z,99114.92
2017-11-28T13:49:06.406Z,99118.51
2017-11-28T13:51:36.959Z,99117.16
2017-11-28T13:54:06.235Z,99114.09
2017-11-28T13:56:35.420Z,99114.34
2017-11-28T13:59:04.640Z,99123.98
2017-11-28T14:01:33.973Z,99117.16
2017-11-28T14:04:03.168Z,99122.18
2017-11-28T14:06:32.517Z,99119.20
2017-11-28T14:09:01.722Z,99117.18
2017-11-28T14:11:30.926Z,99123.54
2017-11-28T14:14:00.140Z,99119.48
2017-11-28T14:16:29.419Z,99114.42
2017-11-28T14:18:59.318Z,99113.67
2017-11-28T14:35:18.910Z,99125.78
2017-11-28T14:37:48.103Z,99119.63
2017-11-28T14:40:17.378Z,99123.52
2017-11-28T14:42:48.219Z,99119.98
2017-11-28T14:45:18.144Z,99128.65
2017-11-28T14:47:47.346Z,99121.50
2017-11-28T14:50:16.615Z,99121.50
2017-11-28T14:52:49.025Z,99129.54
2017-11-28T14:55:23.638Z,99121.77
2017-11-28T15:11:38.815Z,99121.17
2017-11-28T15:14:13.472Z,99118.73
2017-11-28T15:30:06.101Z,99123.89
2017-11-28T15:32:36.111Z,99117.97
2017-11-28T15:35:05.289Z,99124.87
2017-11-28T15:37:34.517Z,99123.52
2017-11-28T15:40:04.498Z,99128.85
2017-11-28T15:42:33.714Z,99125.42
2017-11-28T15:45:02.969Z,99116.31
2017-11-28T15:47:32.937Z,99116.64
2017-11-28T15:50:02.938Z,99122.19
2017-11-28T15:52:32.242Z,99117.61
2017-11-28T15:55:01.435Z,99121.25
2017-11-28T15:57:30.634Z,99121.97
2017-11-28T15:59:59.893Z,99117.70
2017-11-28T16:02:29.079Z,99108.58
2017-11-28T16:04:58.373Z,99109.06
2017-11-28T16:07:27.565Z,99112.84
2017-11-28T16:09:56.752Z,99118.19
2017-11-28T16:12:26.711Z,99113.48
2017-11-28T16:14:55.929Z,99109.30
2017-11-28T16:17:25.124Z,99117.71
2017-11-28T16:19:54.338Z,99119.84
2017-11-28T16:22:23.566Z,99119.35
2017-11-28T16:24:52.838Z,99118.00
2017-11-28T16:27:22.080Z,99115.02
2017-11-28T16:29:51.266Z,99113.56
2017-11-28T16:32:20.530Z,99114.62
2017-11-28T16:34:50.478Z,99110.95
2017-11-28T16:37:19.734Z,99110.33
2017-11-28T16:39:49.749Z,99108.36
2017-11-28T16:42:18.954Z,99104.69
2017-11-28T16:44:48.160Z,99106.20
2017-11-28T16:47:18.131Z,99117.06
2017-11-28T16:49:47.364Z,99123.24
2017-11-28T16:52:16.573Z,99118.83
2017-11-28T16:54:45.760Z,99118.83
2017-11-28T16:57:14.940Z,99113.33
2017-11-28T16:59:44.172Z,99121.09
2017-11-28T17:02:14.183Z,99119.44
2017-11-28T17:04:44.133Z,99117.14
2017-11-28T17:07:13.378Z,99114.12
2017-11-28T17:09:42.576Z,99126.09
2017-11-28T17:12:12.606Z,99131.58
2017-11-28T17:14:41.892Z,99144.51
2017-11-28T17:17:11.135Z,99146.94
2017-11-28T17:19:40.329Z,99143.50
2017-11-28T17:22:09.573Z,99129.06
2017-11-28T17:24:38.787Z,99120.64
2017-11-28T17:27:08.116Z,99122.87
2017-11-28T17:29:38.053Z,99117.03
2017-11-28T17:32:07.289Z,99121.59
2017-11-28T17:34:36.481Z,99125.02
2017-11-28T17:37:05.704Z,99127.55
2017-11-28T17:39:35.670Z,99120.89
2017-11-28T17:42:04.939Z,99129.34
2017-11-28T17:44:34.165Z,99114.77
2017-11-28T17:47:03.390Z,99118.02
2017-11-28T17:49:32.607Z,99114.27
2017-11-28T17:52:01.795Z,99110.88
2017-11-28T17:54:30.991Z,99103.80
2017-11-28T17:57:00.244Z,99106.95
2017-11-28T17:59:29.428Z,99111.56
2017-11-28T18:01:58.662Z,99107.98
2017-11-28T18:04:27.938Z,99111.00
2017-11-28T18:06:57.109Z,99109.33
2017-11-28T18:09:27.090Z,99109.88
2017-11-28T18:11:56.279Z,99108.06
2017-11-28T18:14:25.521Z,99105.91
2017-11-28T18:16:55.467Z,99102.59
2017-11-28T18:19:25.429Z,99096.34
2017-11-28T18:21:55.477Z,99100.13
2017-11-28T18:24:24.675Z,99090.02
2017-11-28T18:26:53.902Z,99097.48
2017-11-28T18:29:23.095Z,99094.16
2017-11-28T18:31:52.281Z,99097.16
2017-11-28T18:34:21.498Z,99103.27
2017-11-28T18:36:50.745Z,99105.90
2017-11-28T18:39:20.737Z,99094.23
2017-11-28T18:41:49.956Z,99106.12
2017-11-28T18:44:19.211Z,99103.84
2017-11-28T18:46:48.427Z,99111.20
2017-11-28T18:49:17.664Z,99121.66
2017-11-28T18:51:47.668Z,99129.81
2017-11-28T18:54:17.624Z,99121.41
2017-11-28T18:56:46.840Z,99117.30
2017-11-28T18:59:16.074Z,99119.83
2017-11-28T19:01:46.011Z,99114.29
2017-11-28T19:04:15.194Z,99111.04
2017-11-28T19:06:45.188Z,99109.28
2017-11-28T19:09:14.403Z,99113.20
2017-11-28T19:11:44.407Z,99110.48
2017-11-28T19:14:13.662Z,99098.61
2017-11-28T19:16:43.240Z,99101.98
2017-11-28T19:19:13.374Z,99099.15
2017-11-28T19:21:42.597Z,99097.34
2017-11-28T19:24:11.810Z,99104.45
2017-11-28T19:26:41.026Z,99103.98
2017-11-28T19:29:11.001Z,99109.61
2017-11-28T19:31:40.248Z,99111.05
2017-11-28T19:34:10.338Z,99106.28
2017-11-28T19:36:39.615Z,99106.87
2017-11-28T19:39:08.786Z,99105.30
2017-11-28T19:41:38.090Z,99105.12
2017-11-28T19:44:08.072Z,99103.70
2017-11-28T19:46:38.067Z,99101.17
2017-11-28T19:49:07.297Z,99107.12
2017-11-28T19:51:36.551Z,99106.40
2017-11-28T19:54:05.996Z,99101.17
2017-11-28T19:56:35.984Z,99105.53
2017-11-28T19:59:06.082Z,99098.16
2017-11-28T20:01:35.315Z,99094.87
2017-11-28T20:04:05.321Z,99092.25
2017-11-28T20:06:34.517Z,99089.25
2017-11-28T20:09:04.500Z,99097.02
2017-11-28T20:11:33.709Z,99097.50
2017-11-28T20:14:02.968Z,99092.34
2017-11-28T20:16:32.176Z,99095.59
2017-11-28T20:19:01.415Z,99089.88
2017-11-28T20:21:30.684Z,99089.33
2017-11-28T20:23:59.933Z,99089.72
2017-11-28T20:26:29.896Z,99092.03
2017-11-28T20:28:59.095Z,99102.48
2017-11-28T20:31:28.388Z,99099.30
2017-11-28T20:33:57.635Z,99091.06
2017-11-28T20:36:26.921Z,99089.02
2017-11-28T20:38:56.091Z,99086.63
2017-11-28T20:41:25.344Z,99088.06
2017-11-28T20:43:54.582Z,99085.75
2017-11-28T20:46:23.881Z,99093.66
2017-11-28T20:48:53.104Z,99082.88
2017-11-28T20:51:22.333Z,99082.88
2017-11-28T20:53:52.382Z,99087.61
2017-11-28T20:56:21.572Z,99091.42
2017-11-28T20:58:50.809Z,99091.34
2017-11-28T21:01:20.084Z,99085.01
2017-11-28T21:03:49.333Z,99088.56
2017-11-28T21:06:18.517Z,99087.22
2017-11-28T21:08:47.739Z,99080.97
2017-11-28T21:11:17.698Z,99079.06
2017-11-28T21:13:46.932Z,99088.56
2017-11-28T21:16:16.153Z,99086.50
2017-11-28T21:18:45.395Z,99093.48
2017-11-28T21:21:14.589Z,99086.27
2017-11-28T21:23:43.908Z,99083.92
2017-11-28T21:26:13.144Z,99087.67
2017-11-28T21:28:43.100Z,99090.59
2017-11-28T21:31:12.438Z,99091.71
2017-11-28T21:33:41.644Z,99083.20
2017-11-28T21:36:11.655Z,99081.23
2017-11-28T21:38:40.913Z,99075.77
2017-11-28T21:41:10.283Z,99081.11
2017-11-28T21:43:39.450Z,99079.55
2017-11-28T21:46:08.700Z,99074.70
2017-11-28T21:48:37.960Z,99070.19
2017-11-28T21:51:07.181Z,99074.47
2017-11-28T21:53:36.428Z,99073.12
2017-11-28T21:56:06.405Z,99074.95
2017-11-28T21:58:35.627Z,99078.66
2017-11-28T22:01:05.621Z,99081.34
2017-11-28T22:03:34.861Z,99086.58
2017-11-28T22:06:04.120Z,99088.48
2017-11-28T22:08:33.326Z,99088.24
2017-11-28T22:11:02.567Z,99082.06
2017-11-28T22:13:31.759Z,99080.63
2017-11-28T22:16:00.970Z,99081.18
2017-11-28T22:18:30.912Z,99083.88
2017-11-28T22:21:00.140Z,99086.09
2017-11-28T22:23:29.323Z,99079.66
2017-11-28T22:25:58.542Z,99084.42
2017-11-28T22:28:27.734Z,99079.59
2017-11-28T22:30:56.966Z,99086.30
2017-11-28T22:33:26.177Z,99086.00
2017-11-28T22:35:56.128Z,99090.73
2017-11-28T22:38:25.336Z,99093.73
2017-11-28T22:40:54.521Z,99078.17
2017-11-28T22:43:23.749Z,99085.46
2017-11-28T22:45:52.944Z,99084.01
2017-11-28T22:48:22.169Z,99093.67
2017-11-28T22:50:52.258Z,99088.27
2017-11-28T22:53:21.468Z,99083.99
2017-11-28T22:55:50.670Z,99088.03
2017-11-28T22:58:19.880Z,99086.77
2017-11-28T23:00:49.884Z,99083.97
2017-11-28T23:03:19.129Z,99077.88
2017-11-28T23:05:48.385Z,99077.08
2017-11-28T23:08:17.569Z,99079.93
2017-11-28T23:10:46.794Z,99079.74
2017-11-28T23:13:16.245Z,99077.84
2017-11-28T23:15:45.484Z,99082.56
2017-11-28T23:18:14.671Z,99085.33
2017-11-28T23:20:43.917Z,99086.25
2017-11-28T23:23:13.101Z,99085.70
2017-11-28T23:25:42.345Z,99088.55
2017-11-28T23:28:11.579Z,99095.59
2017-11-28T23:30:40.798Z,99096.45
2017-11-28T23:33:10.070Z,99093.37
2017-11-28T23:35:40.143Z,99097.77
2017-11-28T23:38:09.347Z,99095.72
2017-11-28T23:40:38.619Z,99102.04
2017-11-28T23:43:07.836Z,99096.34
2017-11-28T23:45:37.021Z,99083.73
2017-11-28T23:48:06.297Z,99088.64
2017-11-28T23:50:35.501Z,99094.88
2017-11-28T23:53:04.764Z,99089.27
2017-11-28T23:55:33.992Z,99089.87
2017-11-28T23:58:03.206Z,99093.03
